createdAt,value
2023-01-05T00:01:37.098Z,94507.44
2023-01-05T00:04:04.387Z,94518.84
2023-01-05T00:06:34.377Z,94510.03
2023-01-05T00:09:01.165Z,94519.13
2023-01-05T00:11:46.493Z,94522.03
2023-01-05T00:14:33.973Z,94510.69
2023-01-05T00:17:18.972Z,94496.66
2023-01-05T00:20:04.543Z,94491.84
2023-01-05T00:22:38.812Z,94476.41
2023-01-05T00:25:12.852Z,94462.91
2023-01-05T00:27:43.040Z,94458.34
2023-01-05T00:30:11.631Z,94470.03
2023-01-05T00:32:38.166Z,94470.66
2023-01-05T00:35:04.971Z,94446.31
2023-01-05T00:37:33.228Z,94446.97
2023-01-05T00:40:00.818Z,94453.13
2023-01-05T00:42:27.276Z,94475.84
2023-01-05T00:44:53.973Z,94425.81
2023-01-05T00:47:20.355Z,94432.59
2023-01-05T00:49:46.783Z,94448.47
2023-01-05T00:52:13.267Z,94439.06
2023-01-05T00:54:39.715Z,94377.88
2023-01-05T00:57:07.296Z,94431.25
2023-01-05T00:59:33.810Z,94421.22
2023-01-05T01:02:00.426Z,94418.25
2023-01-05T01:04:36.007Z,94411.44
2023-01-05T01:07:03.451Z,94408.44
2023-01-05T01:09:29.966Z,94450.63
2023-01-05T01:11:56.604Z,94445.66
2023-01-05T01:14:23.102Z,94419.66
2023-01-05T01:16:49.877Z,94392.13
2023-01-05T01:19:22.198Z,94445.19
2023-01-05T01:21:49.070Z,94413.13
2023-01-05T01:24:18.738Z,94430.63
2023-01-05T01:26:45.327Z,94425.75
2023-01-05T01:29:12.020Z,94409.78
2023-01-05T01:31:38.950Z,94397.63
2023-01-05T01:34:05.482Z,94348.88
2023-01-05T01:36:32.161Z,94410.13
2023-01-05T01:38:58.568Z,94375.66
2023-01-05T01:41:32.452Z,94372.25
2023-01-05T01:43:59.288Z,94383.00
2023-01-05T01:46:27.168Z,94389.84
2023-01-05T01:49:00.830Z,94378.72
2023-01-05T01:51:32.650Z,94382.72
2023-01-05T01:54:03.074Z,94397.59
2023-01-05T01:56:35.345Z,94385.19
2023-01-05T01:59:02.281Z,94366.69
2023-01-05T02:01:28.924Z,94345.63
2023-01-05T02:03:56.424Z,94360.22
2023-01-05T02:06:23.234Z,94358.56
2023-01-05T02:08:50.184Z,94382.19
2023-01-05T02:11:41.493Z,94374.28
2023-01-05T02:14:28.718Z,94350.69
2023-01-05T02:17:36.870Z,94345.91
2023-01-05T02:20:30.702Z,94345.81
2023-01-05T02:23:31.809Z,94332.31
2023-01-05T02:26:01.276Z,94339.38
2023-01-05T02:28:58.556Z,94338.66
2023-01-05T02:31:32.992Z,94357.88
2023-01-05T02:34:03.191Z,94367.88
2023-01-05T02:36:52.948Z,94381.97
2023-01-05T02:39:26.769Z,94327.59
2023-01-05T02:42:01.668Z,94353.94
2023-01-05T02:44:30.560Z,94331.56
2023-01-05T02:47:06.429Z,94319.31
2023-01-05T02:49:38.045Z,94348.22
2023-01-05T02:52:12.557Z,94344.97
2023-01-05T02:54:50.286Z,94331.69
2023-01-05T02:57:45.270Z,94332.63
2023-01-05T03:00:16.135Z,94333.81
2023-01-05T03:02:44.300Z,94318.41
2023-01-05T03:05:25.689Z,94311.81
2023-01-05T03:07:54.991Z,94352.94
2023-01-05T03:10:40.462Z,94332.38
2023-01-05T03:13:27.390Z,94321.06
2023-01-05T03:16:01.933Z,94340.00
2023-01-05T03:18:54.832Z,94310.19
2023-01-05T03:21:23.100Z,94331.97
2023-01-05T03:24:09.314Z,94339.25
2023-01-05T03:26:55.654Z,94310.50
2023-01-05T03:29:40.347Z,94317.03
2023-01-05T03:33:00.876Z,94347.59
2023-01-05T03:35:30.429Z,94310.22
2023-01-05T03:38:12.299Z,94335.75
2023-01-05T03:40:43.318Z,94325.44
2023-01-05T03:43:10.299Z,94256.03
2023-01-05T03:45:43.334Z,94347.59
2023-01-05T03:48:09.773Z,94329.00
2023-01-05T03:50:37.165Z,94328.00
2023-01-05T03:53:04.347Z,94340.41
2023-01-05T03:55:30.753Z,94319.81
2023-01-05T03:57:57.142Z,94275.63
2023-01-05T04:00:25.235Z,94330.69
2023-01-05T04:02:52.933Z,94336.72
2023-01-05T04:05:19.414Z,94338.91
2023-01-05T04:07:45.951Z,94322.03
2023-01-05T04:10:12.609Z,94314.34
2023-01-05T04:12:39.096Z,94311.38
2023-01-05T04:15:06.088Z,94329.78
2023-01-05T04:17:32.651Z,94317.84
2023-01-05T04:19:59.235Z,94319.56
2023-01-05T04:22:27.494Z,94325.47
2023-01-05T04:24:54.435Z,94337.09
2023-01-05T04:27:21.883Z,94318.75
2023-01-05T04:29:48.273Z,94319.81
2023-01-05T04:32:14.831Z,94340.41
2023-01-05T04:34:41.247Z,94332.31
2023-01-05T04:37:07.717Z,94323.69
2023-01-05T04:39:34.112Z,94336.72
2023-01-05T04:42:00.511Z,94350.91
2023-01-05T04:44:26.934Z,94281.50
2023-01-05T04:46:53.425Z,94339.13
2023-01-05T04:49:19.901Z,94313.19
2023-01-05T04:51:46.332Z,94321.69
2023-01-05T04:54:12.752Z,94274.94
2023-01-05T04:56:39.129Z,94310.66
2023-01-05T04:59:05.562Z,94311.59
2023-01-05T05:01:32.011Z,94328.69
2023-01-05T05:03:58.635Z,94332.72
2023-01-05T05:06:26.389Z,94363.34
2023-01-05T05:08:52.781Z,94367.47
2023-01-05T05:11:19.190Z,94301.41
2023-01-05T05:13:45.594Z,94307.09
2023-01-05T05:16:19.067Z,94334.28
2023-01-05T05:18:45.564Z,94351.53
2023-01-05T05:21:11.936Z,94340.53
2023-01-05T05:23:38.354Z,94347.38
2023-01-05T05:26:04.984Z,94336.59
2023-01-05T05:28:32.427Z,94342.50
2023-01-05T05:30:58.957Z,94319.31
2023-01-05T05:33:25.947Z,94341.56
2023-01-05T05:35:52.657Z,94337.66
2023-01-05T05:38:21.102Z,94333.00
2023-01-05T05:40:51.216Z,94343.06
2023-01-05T05:43:17.788Z,94351.03
2023-01-05T05:45:49.948Z,94337.41
2023-01-05T05:48:17.328Z,94364.38
2023-01-05T05:50:44.939Z,94332.22
2023-01-05T05:53:11.363Z,94352.22
2023-01-05T05:55:37.828Z,94350.81
2023-01-05T05:58:04.224Z,94380.47
2023-01-05T06:00:30.639Z,94367.22
2023-01-05T06:02:57.154Z,94374.44
2023-01-05T06:05:23.687Z,94379.31
2023-01-05T06:07:50.106Z,94377.16
2023-01-05T06:10:16.674Z,94400.97
2023-01-05T06:12:43.105Z,94354.66
2023-01-05T06:15:10.169Z,94365.06
2023-01-05T06:17:36.658Z,94380.34
2023-01-05T06:20:03.662Z,94390.75
2023-01-05T06:22:30.050Z,94371.94
2023-01-05T06:24:56.471Z,94388.44
2023-01-05T06:27:22.989Z,94401.97
2023-01-05T06:29:49.511Z,94376.47
2023-01-05T06:32:15.971Z,94375.38
2023-01-05T06:34:42.363Z,94366.09
2023-01-05T06:37:08.733Z,94374.00
2023-01-05T06:39:35.125Z,94382.44
2023-01-05T06:42:01.648Z,94361.38
2023-01-05T06:44:28.112Z,94388.31
2023-01-05T06:46:54.519Z,94358.47
2023-01-05T06:49:21.001Z,94419.94
2023-01-05T06:51:47.472Z,94330.44
2023-01-05T06:54:14.020Z,94369.34
2023-01-05T06:56:40.421Z,94415.34
2023-01-05T06:59:06.819Z,94417.53
2023-01-05T07:01:33.352Z,94393.31
2023-01-05T07:03:59.835Z,94391.34
2023-01-05T07:06:26.257Z,94408.31
2023-01-05T07:08:53.652Z,94446.94
2023-01-05T07:11:20.044Z,94425.28
2023-01-05T07:13:50.652Z,94463.16
2023-01-05T07:16:23.351Z,94439.50
2023-01-05T07:18:49.789Z,94450.06
2023-01-05T07:21:16.268Z,94443.66
2023-01-05T07:23:42.635Z,94400.25
2023-01-05T07:26:09.678Z,94472.03
2023-01-05T07:28:37.181Z,94465.56
2023-01-05T07:31:04.428Z,94455.84
2023-01-05T07:33:37.547Z,94441.16
2023-01-05T07:36:07.441Z,94416.47
2023-01-05T07:38:34.958Z,94442.34
2023-01-05T07:41:04.762Z,94397.22
2023-01-05T07:43:32.293Z,94453.19
2023-01-05T07:46:04.358Z,94452.03
2023-01-05T07:48:30.768Z,94446.25
2023-01-05T07:51:01.628Z,94461.09
2023-01-05T07:53:30.768Z,94460.38
2023-01-05T07:56:06.899Z,94463.03
2023-01-05T07:58:34.220Z,94449.84
2023-01-05T08:01:10.129Z,94447.81
2023-01-05T08:03:36.745Z,94479.03
2023-01-05T08:06:05.648Z,94487.16
2023-01-05T08:08:32.081Z,94471.53
2023-01-05T08:10:59.751Z,94496.53
2023-01-05T08:13:44.871Z,94482.03
2023-01-05T08:16:11.467Z,94488.53
2023-01-05T08:18:37.921Z,94485.25
2023-01-05T08:21:08.561Z,94515.59
2023-01-05T08:23:37.400Z,94496.06
2023-01-05T08:26:12.366Z,94524.91
2023-01-05T08:28:41.013Z,94496.06
2023-01-05T08:31:11.385Z,94500.66
2023-01-05T08:33:37.815Z,94502.78
2023-01-05T08:36:09.817Z,94514.13
2023-01-05T08:38:38.386Z,94528.16
2023-01-05T08:41:05.211Z,94528.75
2023-01-05T08:43:38.950Z,94508.47
2023-01-05T08:46:07.746Z,94516.13
2023-01-05T08:48:34.301Z,94528.09
2023-01-05T08:51:03.817Z,94527.13
2023-01-05T08:53:31.273Z,94542.13
2023-01-05T08:55:58.734Z,94528.69
2023-01-05T08:58:26.379Z,94515.13
2023-01-05T09:00:57.110Z,94530.13
2023-01-05T09:03:23.645Z,94523.44
2023-01-05T09:05:53.081Z,94543.00
2023-01-05T09:08:20.587Z,94551.22
2023-01-05T09:10:47.261Z,94558.56
2023-01-05T09:13:15.843Z,94513.69
2023-01-05T09:15:44.345Z,94542.66
2023-01-05T09:18:10.879Z,94544.63
2023-01-05T09:20:40.147Z,94524.13
2023-01-05T09:23:06.712Z,94532.97
2023-01-05T09:25:33.191Z,94484.44
2023-01-05T09:28:00.620Z,94535.47
2023-01-05T09:30:27.069Z,94527.63
2023-01-05T09:32:55.609Z,94506.03
2023-01-05T09:35:22.054Z,94523.50
2023-01-05T09:37:48.491Z,94528.13
2023-01-05T09:40:18.001Z,94525.41
2023-01-05T09:42:51.341Z,94512.34
2023-01-05T09:45:27.576Z,94517.56
2023-01-05T09:47:59.245Z,94532.06
2023-01-05T09:50:30.826Z,94550.09
2023-01-05T09:52:59.759Z,94554.78
2023-01-05T09:55:32.630Z,94536.78
2023-01-05T09:58:35.590Z,94549.22
2023-01-05T10:01:14.354Z,94558.75
2023-01-05T10:04:04.511Z,94543.25
2023-01-05T10:06:39.636Z,94529.03
2023-01-05T10:09:09.476Z,94528.31
2023-01-05T10:12:25.260Z,94538.91
2023-01-05T10:15:01.593Z,94535.66
2023-01-05T10:17:44.144Z,94530.72
2023-01-05T10:20:42.986Z,94540.88
2023-01-05T10:23:20.716Z,94527.41
2023-01-05T10:25:58.105Z,94525.44
2023-01-05T10:28:37.678Z,94518.94
2023-01-05T10:31:24.042Z,94515.03
2023-01-05T10:34:16.090Z,94497.81
2023-01-05T10:37:34.499Z,94522.44
2023-01-05T10:40:39.454Z,94517.31
2023-01-05T10:43:33.438Z,94520.06
2023-01-05T10:46:31.228Z,94506.25
2023-01-05T10:48:54.448Z,94482.94
2023-01-05T10:51:21.739Z,94484.72
2023-01-05T10:53:50.170Z,94506.34
2023-01-05T10:56:24.235Z,94472.13
2023-01-05T10:59:10.511Z,94520.34
2023-01-05T11:01:38.770Z,94492.69
2023-01-05T11:04:34.536Z,94484.31
2023-01-05T11:07:08.324Z,94508.16
2023-01-05T11:09:40.399Z,94486.63
2023-01-05T11:12:18.680Z,94510.22
2023-01-05T11:14:54.772Z,94473.56
2023-01-05T11:17:28.056Z,94510.22
2023-01-05T11:19:58.713Z,94497.34
2023-01-05T11:22:35.384Z,94521.69
2023-01-05T11:25:20.802Z,94515.78
2023-01-05T11:27:52.634Z,94493.50
2023-01-05T11:30:25.438Z,94510.56
2023-01-05T11:32:52.033Z,94498.84
2023-01-05T11:35:32.076Z,94500.81
2023-01-05T11:38:00.476Z,94491.66
2023-01-05T11:40:31.351Z,94523.75
2023-01-05T11:43:09.272Z,94485.06
2023-01-05T11:45:41.603Z,94511.75
2023-01-05T11:48:14.636Z,94490.31
2023-01-05T11:50:46.559Z,94492.28
2023-01-05T11:53:35.345Z,94500.47
2023-01-05T11:56:07.941Z,94500.13
2023-01-05T11:58:52.065Z,94494.13
2023-01-05T12:01:27.645Z,94498.63
2023-01-05T12:04:39.011Z,94495.25
2023-01-05T12:07:42.970Z,94494.72
2023-01-05T12:10:42.351Z,94498.31
2023-01-05T12:13:40.871Z,94500.28
2023-01-05T12:16:34.909Z,94516.13
2023-01-05T12:19:26.277Z,94509.16
2023-01-05T12:22:30.354Z,94511.72
2023-01-05T12:25:20.086Z,94519.59
2023-01-05T12:28:23.802Z,94514.16
2023-01-05T12:35:01.684Z,94518.84
2023-01-05T12:38:04.343Z,94512.91
2023-01-05T12:40:45.980Z,94522.47
2023-01-05T12:43:57.115Z,94522.50
2023-01-05T12:46:25.677Z,94536.00
2023-01-05T12:49:19.643Z,94529.63
2023-01-05T12:51:50.928Z,94529.28
2023-01-05T12:54:42.378Z,94526.16
2023-01-05T12:57:33.669Z,94505.41
2023-01-05T13:00:13.662Z,94503.19
2023-01-05T13:02:53.846Z,94534.34
2023-01-05T13:05:47.196Z,94540.88
2023-01-05T13:09:11.195Z,94536.94
2023-01-05T13:11:54.353Z,94517.81
2023-01-05T13:14:30.879Z,94532.63
2023-01-05T13:17:31.053Z,94541.44
2023-01-05T13:20:22.979Z,94546.63
2023-01-05T13:22:56.428Z,94505.41
2023-01-05T13:25:32.996Z,94520.72
2023-01-05T13:28:18.613Z,94527.41
2023-01-05T13:31:19.243Z,94549.56
2023-01-05T13:34:22.639Z,94555.84
2023-01-05T13:37:01.232Z,94548.66
2023-01-05T13:39:44.410Z,94552.25
2023-01-05T13:42:45.574Z,94547.47
2023-01-05T13:45:48.572Z,94525.03
2023-01-05T13:48:45.184Z,94538.72
2023-01-05T13:51:51.104Z,94558.47
2023-01-05T13:54:37.781Z,94558.78
2023-01-05T13:57:27.860Z,94530.94
2023-01-05T14:00:10.347Z,94548.38
2023-01-05T14:02:41.682Z,94523.75
2023-01-05T14:05:32.191Z,94550.78
2023-01-05T14:08:04.092Z,94526.66
2023-01-05T14:10:38.589Z,94530.00
2023-01-05T14:13:06.843Z,94541.59
2023-01-05T14:15:49.406Z,94523.75
2023-01-05T14:18:50.913Z,94503.28
2023-01-05T14:21:49.025Z,94544.69
2023-01-05T14:24:47.626Z,94544.00
2023-01-05T14:27:22.693Z,94552.09
2023-01-05T14:32:37.269Z,94544.09
2023-01-05T14:35:19.858Z,94558.38
2023-01-05T14:37:57.725Z,94558.22
2023-01-05T14:40:24.167Z,94554.63
2023-01-05T14:42:51.046Z,94557.72
2023-01-05T14:45:28.618Z,94539.13
2023-01-05T14:47:57.679Z,94566.22
2023-01-05T14:50:30.487Z,94568.78
2023-01-05T14:53:01.823Z,94543.31
2023-01-05T14:55:56.888Z,94570.22
2023-01-05T14:58:35.509Z,94568.69
2023-01-05T15:01:17.119Z,94567.53
2023-01-05T15:04:24.691Z,94564.66
2023-01-05T15:07:01.645Z,94563.44
2023-01-05T15:09:51.389Z,94556.84
2023-01-05T15:13:05.260Z,94568.41
2023-01-05T15:15:56.141Z,94566.91
2023-01-05T15:19:02.158Z,94559.72
2023-01-05T15:21:46.954Z,94570.84
2023-01-05T15:28:06.877Z,94555.88
2023-01-05T15:31:14.083Z,94563.19
2023-01-05T15:33:42.670Z,94559.28
2023-01-05T15:36:21.964Z,94556.50
2023-01-05T15:38:54.932Z,94558.22
2023-01-05T15:41:22.853Z,94544.88
2023-01-05T15:43:52.127Z,94562.75
2023-01-05T15:46:22.627Z,94558.56
2023-01-05T15:48:53.324Z,94547.09
2023-01-05T15:51:37.993Z,94546.53
2023-01-05T15:54:21.890Z,94560.19
2023-01-05T15:56:48.340Z,94547.41
2023-01-05T15:59:29.467Z,94557.03
2023-01-05T16:01:56.249Z,94547.53
2023-01-05T16:04:22.692Z,94557.97
2023-01-05T16:07:00.635Z,94518.31
2023-01-05T16:09:34.407Z,94559.69
2023-01-05T16:12:07.046Z,94557.66
2023-01-05T16:14:46.277Z,94530.47
2023-01-05T16:17:18.415Z,94534.66
2023-01-05T16:20:01.304Z,94525.50
2023-01-05T16:22:39.231Z,94560.31
2023-01-05T16:25:15.073Z,94556.69
2023-01-05T16:27:46.390Z,94545.25
2023-01-05T16:30:40.214Z,94568.53
2023-01-05T16:33:12.673Z,94570.63
2023-01-05T16:36:05.692Z,94558.53
2023-01-05T16:38:32.513Z,94549.84
2023-01-05T16:41:08.012Z,94580.72
2023-01-05T16:43:49.550Z,94584.66
2023-01-05T16:46:18.731Z,94580.72
2023-01-05T16:49:16.011Z,94596.63
2023-01-05T16:51:42.816Z,94575.59
2023-01-05T16:54:16.918Z,94580.50
2023-01-05T16:56:59.085Z,94582.69
2023-01-05T16:59:34.790Z,94600.22
2023-01-05T17:02:01.748Z,94595.69
2023-01-05T17:04:28.251Z,94583.72
2023-01-05T17:06:57.759Z,94573.47
2023-01-05T17:09:28.931Z,94564.84
2023-01-05T17:11:57.777Z,94609.69
2023-01-05T17:14:27.925Z,94594.63
2023-01-05T17:17:00.499Z,94569.25
2023-01-05T17:19:27.102Z,94568.03
2023-01-05T17:22:01.895Z,94568.03
2023-01-05T17:24:30.943Z,94568.38
2023-01-05T17:27:00.052Z,94599.44
2023-01-05T17:29:32.367Z,94593.94
2023-01-05T17:32:03.803Z,94576.06
2023-01-05T17:34:36.323Z,94571.53
2023-01-05T17:37:14.941Z,94590.81
2023-01-05T17:39:41.389Z,94604.25
2023-01-05T17:42:29.468Z,94585.41
2023-01-05T17:44:55.996Z,94592.78
2023-01-05T17:47:22.576Z,94588.81
2023-01-05T17:49:49.040Z,94594.72
2023-01-05T17:52:15.417Z,94608.44
2023-01-05T17:54:44.269Z,94568.06
2023-01-05T17:57:13.272Z,94579.81
2023-01-05T18:02:17.095Z,94614.81
2023-01-05T18:04:43.545Z,94584.66
2023-01-05T18:07:09.963Z,94592.63
2023-01-05T18:09:37.985Z,94580.94
2023-01-05T18:12:05.014Z,94619.78
2023-01-05T18:14:31.565Z,94591.16
2023-01-05T18:16:57.939Z,94583.16
2023-01-05T18:19:26.330Z,94591.16
2023-01-05T18:21:52.733Z,94599.94
2023-01-05T18:24:19.257Z,94600.91
2023-01-05T18:26:53.941Z,94598.13
2023-01-05T18:29:23.106Z,94601.94
2023-01-05T18:31:49.556Z,94588.72
2023-01-05T18:34:16.032Z,94584.19
2023-01-05T18:36:43.589Z,94607.59
2023-01-05T18:39:10.048Z,94564.91
2023-01-05T18:41:47.561Z,94585.03
2023-01-05T18:44:14.179Z,94611.22
2023-01-05T18:46:40.723Z,94590.56
2023-01-05T18:49:07.303Z,94595.00
2023-01-05T18:51:34.141Z,94614.47
2023-01-05T18:54:01.680Z,94610.03
2023-01-05T18:56:40.496Z,94601.59
2023-01-05T18:59:07.207Z,94616.78
2023-01-05T19:01:35.665Z,94609.94
2023-01-05T19:04:02.123Z,94611.44
2023-01-05T19:06:28.506Z,94593.94
2023-01-05T19:08:54.996Z,94582.78
2023-01-05T19:11:25.229Z,94597.75
2023-01-05T19:13:53.771Z,94621.63
2023-01-05T19:16:28.685Z,94597.66
2023-01-05T19:18:57.417Z,94618.28
2023-01-05T19:21:25.922Z,94613.97
2023-01-05T19:23:57.674Z,94626.41
2023-01-05T19:26:24.622Z,94578.50
2023-01-05T19:28:51.182Z,94622.75
2023-01-05T19:31:24.803Z,94604.81
2023-01-05T19:34:01.710Z,94617.94
2023-01-05T19:36:34.852Z,94589.16
2023-01-05T19:39:21.888Z,94606.78
2023-01-05T19:41:51.214Z,94612.84
2023-01-05T19:44:20.546Z,94594.38
2023-01-05T19:46:53.233Z,94623.72
2023-01-05T19:49:25.282Z,94601.44
2023-01-05T19:51:52.536Z,94614.91
2023-01-05T19:54:22.517Z,94622.69
2023-01-05T19:56:49.040Z,94577.75
2023-01-05T19:59:17.740Z,94611.44
2023-01-05T20:01:45.275Z,94584.53
2023-01-05T20:04:11.851Z,94607.63
2023-01-05T20:06:41.587Z,94542.31
2023-01-05T20:09:12.044Z,94558.81
2023-01-05T20:11:43.187Z,94599.59
2023-01-05T20:14:18.122Z,94591.91
2023-01-05T20:16:48.366Z,94553.59
2023-01-05T20:19:15.625Z,94553.94
2023-01-05T20:21:42.257Z,94567.09
2023-01-05T20:24:13.961Z,94555.03
2023-01-05T20:26:42.067Z,94564.72
2023-01-05T20:29:09.446Z,94577.34
2023-01-05T20:31:40.250Z,94583.25
2023-01-05T20:34:10.789Z,94579.78
2023-01-05T20:36:37.992Z,94539.69
2023-01-05T20:39:06.493Z,94567.84
2023-01-05T20:41:40.585Z,94569.59
2023-01-05T20:44:08.263Z,94575.78
2023-01-05T20:46:38.874Z,94553.72
2023-01-05T20:49:05.621Z,94581.88
2023-01-05T20:51:32.876Z,94580.59
2023-01-05T20:54:02.424Z,94573.75
2023-01-05T20:56:33.528Z,94571.31
2023-01-05T20:59:00.545Z,94559.03
2023-01-05T21:01:29.077Z,94567.03
2023-01-05T21:04:05.520Z,94565.63
2023-01-05T21:06:32.293Z,94579.69
2023-01-05T21:09:05.458Z,94570.91
2023-01-05T21:11:34.853Z,94565.56
2023-01-05T21:14:02.774Z,94551.72
2023-01-05T21:16:42.800Z,94567.69
2023-01-05T21:19:11.760Z,94577.00
2023-01-05T21:21:38.535Z,94560.94
2023-01-05T21:24:07.753Z,94580.41
2023-01-05T21:26:34.238Z,94548.94
2023-01-05T21:29:01.877Z,94577.41
2023-01-05T21:31:32.411Z,94571.13
2023-01-05T21:34:04.318Z,94581.13
2023-01-05T21:36:32.227Z,94565.13
2023-01-05T21:39:03.751Z,94575.13
2023-01-05T21:41:53.168Z,94573.50
2023-01-05T21:44:20.620Z,94552.50
2023-01-05T21:46:48.267Z,94554.13
2023-01-05T21:49:15.339Z,94559.69
2023-01-05T21:52:00.405Z,94558.16
2023-01-05T21:54:45.790Z,94557.47
2023-01-05T21:57:12.528Z,94573.47
2023-01-05T21:59:39.291Z,94566.63
2023-01-05T22:02:06.347Z,94531.72
2023-01-05T22:04:32.907Z,94568.00
2023-01-05T22:07:03.856Z,94569.94
2023-01-05T22:09:30.210Z,94551.66
2023-01-05T22:11:56.639Z,94537.13
2023-01-05T22:14:23.012Z,94540.72
2023-01-05T22:16:49.686Z,94537.91
2023-01-05T22:19:16.140Z,94562.31
2023-01-05T22:21:43.583Z,94544.16
2023-01-05T22:24:12.354Z,94562.19
2023-01-05T22:26:39.158Z,94573.06
2023-01-05T22:29:05.624Z,94533.38
2023-01-05T22:31:33.156Z,94539.00
2023-01-05T22:34:00.573Z,94561.13
2023-01-05T22:36:28.836Z,94561.47
2023-01-05T22:38:56.057Z,94473.41
2023-01-05T22:41:27.966Z,94543.28
2023-01-05T22:43:55.684Z,94516.56
2023-01-05T22:46:26.600Z,94542.56
2023-01-05T22:48:54.234Z,94557.03
2023-01-05T22:51:23.734Z,94554.50
2023-01-05T22:53:50.799Z,94551.16
2023-01-05T22:56:19.232Z,94532.34
2023-01-05T22:58:47.005Z,94522.28
2023-01-05T23:01:21.697Z,94528.63
2023-01-05T23:03:48.853Z,94531.00
2023-01-05T23:06:16.027Z,94553.06
2023-01-05T23:08:43.244Z,94548.69
2023-01-05T23:11:19.188Z,94443.28
2023-01-05T23:13:46.716Z,94533.91
2023-01-05T23:16:18.046Z,94533.34
2023-01-05T23:18:45.007Z,94529.81
2023-01-05T23:21:14.162Z,94526.50
2023-01-05T23:23:40.923Z,94518.97
2023-01-05T23:26:09.409Z,94519.91
2023-01-05T23:28:36.110Z,94506.53
2023-01-05T23:31:03.332Z,94495.53
2023-01-05T23:33:32.903Z,94498.41
2023-01-05T23:35:59.678Z,94494.44
2023-01-05T23:38:26.864Z,94495.97
2023-01-05T23:40:55.169Z,94516.09
2023-01-05T23:43:24.098Z,94514.22
2023-01-05T23:45:52.217Z,94509.63
2023-01-05T23:48:19.059Z,94487.88
2023-01-05T23:50:47.991Z,94490.97
2023-01-05T23:53:15.089Z,94507.53
2023-01-05T23:55:41.957Z,94493.75
2023-01-05T23:58:09.461Z,94515.47
